Home > Products > Valid Products > TAF

000
FTUS43 KDTX 251123
TAFFNT
TAF
KFNT 251123Z 2512/2612 23008KT P6SM SCT060 SCT250
     FM251900 20008KT P6SM SCT060
     FM260100 16005KT P6SM BKN060 OVC150
     FM260700 20005KT 5SM -SHRA BR OVC060=



000
FTUS43 KDTX 251123
TAFDTW
TAF
KDTW 251123Z 2512/2618 22008KT P6SM BKN250
     FM251900 20008KT P6SM SCT060
     FM260100 16005KT P6SM BKN060 OVC150
     FM260700 20005KT 5SM -SHRA BR OVC060
     FM261300 22010KT P6SM BKN035 OVC060=



000
FTUS43 KDTX 251123
TAFDET
TAF
KDET 251123Z 2512/2612 25008KT P6SM BKN250
     FM251900 22008KT P6SM SCT060
     FM260100 16005KT P6SM BKN060 OVC150
     FM260700 22005KT 5SM -SHRA BR OVC060=



000
FTUS43 KDTX 251123
TAFMBS
TAF
KMBS 251123Z 2512/2612 23008KT P6SM SCT060 SCT250
     FM251700 VRB03KT P6SM BKN060
     FM252100 05008KT P6SM BKN060 OVC150 PROB30 2521/2524 3SM TSRA
      OVC035CB
     FM260100 05005KT P6SM BKN060 OVC150
     FM260700 20005KT 5SM -SHRA BR OVC060=



000
FTUS43 KDTX 242338
TAFFNT
TAF
KFNT 242338Z 2500/2524 22005KT P6SM BKN250
     FM251300 22010KT P6SM SCT080 SCT150
     FM251700 23008KT P6SM SCT050 BKN200=



000
FTUS43 KDTX 242338
TAFDTW
TAF
KDTW 242338Z 2500/2606 21007KT P6SM FEW070
     FM250100 19005KT P6SM BKN250
     FM251300 21010KT P6SM SCT150
     FM251900 19008KT P6SM SCT060 BKN200=



000
FTUS43 KDTX 242338
TAFMBS
TAF
KMBS 242338Z 2500/2524 23006KT P6SM BKN250
     FM251400 25008KT P6SM BKN080
     FM252000 VRB05KT P6SM SCT050 BKN120=



000
FTUS43 KDTX 242338
TAFDET
TAF
KDET 242338Z 2500/2524 21007KT P6SM FEW070
     FM250100 19005KT P6SM BKN250
     FM251300 21010KT P6SM SCT150
     FM251900 19008KT P6SM SCT060 BKN200=



000
FTUS43 KDTX 242048 AAA
TAFDTW
TAF AMD
KDTW 242048Z 2421/2524 21007KT P6SM FEW070
     FM250100 19005KT P6SM SCT200
     FM251400 21010KT P6SM SCT050 BKN150
     FM252100 19008KT P6SM BKN060=



000
FTUS43 KDTX 241729
TAFFNT
TAF
KFNT 241729Z 2418/2518 24010KT P6SM FEW060
     FM250100 22005KT P6SM BKN250
     FM251400 24008KT P6SM SCT040 BKN080=



000
FTUS43 KDTX 241729
TAFDET
TAF
KDET 241729Z 2418/2518 23010KT P6SM FEW060
     FM250100 23005KT P6SM SCT200
     FM251400 21010KT P6SM SCT050 BKN150=



000
FTUS43 KDTX 241729
TAFMBS
TAF
KMBS 241729Z 2418/2518 24010KT P6SM SKC
     FM250100 22006KT P6SM BKN250
     FM251400 24008KT P6SM SCT040 BKN080=



000
FTUS43 KDTX 241729
TAFDTW
TAF
KDTW 241729Z 2418/2524 21010KT P6SM FEW060
     FM250100 19005KT P6SM SCT200
     FM251400 21010KT P6SM SCT050 BKN150
     FM252100 19008KT P6SM BKN060=



000
FTUS43 KDTX 241453 AAA
TAFDTW
TAF AMD
KDTW 241453Z 2415/2518 23010KT P6SM FEW060 SCT250
     FM250100 20005KT P6SM SCT250
     FM250800 23010KT P6SM SCT080 BKN200=



000
FTUS43 KDTX 241127
TAFDET
TAF
KDET 241127Z 2412/2512 22005KT P6SM SKC
     FM241700 25010KT P6SM FEW060 SCT250
     FM250100 22005KT P6SM SCT250
     FM250800 25010KT P6SM SCT080 BKN200=



000
FTUS43 KDTX 241127
TAFDTW
TAF
KDTW 241127Z 2412/2518 20005KT P6SM SKC
     FM241700 23010KT P6SM FEW060 SCT250
     FM250100 20005KT P6SM SCT250
     FM250800 23010KT P6SM SCT080 BKN200=



000
FTUS43 KDTX 241127
TAFFNT
TAF
KFNT 241127Z 2412/2512 20005KT P6SM SKC
     FM241700 23010KT P6SM FEW060 SCT250
     FM250100 20005KT P6SM BKN250
     FM250800 23010KT P6SM BKN080 OVC200=



000
FTUS43 KDTX 241127
TAFMBS
TAF
KMBS 241127Z 2412/2512 21007KT P6SM SKC
     FM241700 24013KT P6SM FEW060 SCT250
     FM250100 21007KT P6SM BKN250
     FM250800 24013KT 6SM -SHRA OVC080=



000
FTUS43 KDTX 240902 AAA
TAFDTW
TAF AMD
KDTW 240902Z 2409/2512 18005KT P6SM SKC
     FM241800 22009KT P6SM SCT050 SCT250
     FM250000 20005KT P6SM BKN200=



000
FTUS43 KDTX 240525
TAFDET
TAF
KDET 240525Z 2406/2506 21005KT P6SM SKC
     FM241800 23009KT P6SM SCT050 SCT250
     FM250000 21005KT P6SM BKN200=



000
FTUS43 KDTX 240525
TAFDTW
TAF
KDTW 240525Z 2406/2512 18005KT P6SM SKC
     FM241800 22009KT P6SM SCT050 SCT250
     FM250000 20005KT P6SM BKN200=



000
FTUS43 KDTX 240525
TAFFNT
TAF
KFNT 240525Z 2406/2506 20005KT P6SM SKC
     FM241800 24010KT P6SM SCT050 SCT250
     FM250000 21005KT P6SM BKN200=



000
FTUS43 KDTX 240525
TAFMBS
TAF
KMBS 240525Z 2406/2506 20006KT P6SM SKC
     FM241800 24012KT P6SM SCT050 SCT250
     FM250000 22006KT P6SM BKN200=



000
FTUS43 KDTX 240159 AAA
TAFDTW
TAF AMD
KDTW 240159Z 2402/2506 18004KT P6SM SKC
     FM241500 22008KT P6SM SKC
     FM241800 22009KT P6SM SCT050 SCT250
     FM250000 20005KT P6SM BKN200=



000
FTUS43 KDTX 231738
TAFFNT
TAF
KFNT 231738Z 2318/2418 20005KT P6SM SKC
     FM241500 23009KT P6SM SCT050=



000
FTUS43 KDTX 231738
TAFMBS
TAF
KMBS 231738Z 2318/2418 20006KT P6SM SKC
     FM241500 23010KT P6SM SCT050=



000
FTUS43 KDTX 231738
TAFDET
TAF
KDET 231738Z 2318/2418 13008KT P6SM SKC
     FM240100 20005KT P6SM SKC
     FM241500 23008KT P6SM SKC=



000
FTUS43 KDTX 231738
TAFDTW
TAF
KDTW 231738Z 2318/2424 20004KT P6SM SKC
     FM231900 16008KT P6SM SKC
     FM240100 19005KT P6SM SKC
     FM241500 22008KT P6SM SKC
     FM241800 22009KT P6SM SCT050 SCT250=



000
FTUS43 KDTX 231454 AAA
TAFDTW
TAF AMD
KDTW 231454Z 2315/2418 20004KT P6SM SKC
     FM231900 16008KT P6SM SKC
     FM240100 20005KT P6SM SKC
     FM241400 22010KT P6SM SCT250=



000
FTUS43 KDTX 231123
TAFDTW
TAF
KDTW 231123Z 2312/2418 20005KT P6SM SKC
     FM231900 16008KT P6SM SKC
     FM240100 20005KT P6SM SKC
     FM241400 22010KT P6SM SCT250=



000
FTUS43 KDTX 231123
TAFDET
TAF
KDET 231123Z 2312/2412 20005KT P6SM SKC
     FM231900 13008KT P6SM SKC
     FM240100 20005KT P6SM SKC=



000
FTUS43 KDTX 231123
TAFMBS
TAF
KMBS 231123Z 2312/2412 20005KT P6SM SKC=



000
FTUS43 KDTX 231123
TAFFNT
TAF
KFNT 231123Z 2312/2412 20005KT P6SM SKC=



000
FTUS43 KDTX 230523
TAFDTW
TAF
KDTW 230523Z 2306/2412 VRB03KT P6SM SKC
     FM231600 19007KT P6SM SKC
     FM240100 20003KT P6SM SKC=



000
FTUS43 KDTX 230523
TAFFNT
TAF
KFNT 230523Z 2306/2406 VRB03KT P6SM SKC
     FM231600 21007KT P6SM SKC
     FM240100 22003KT P6SM SKC=



000
FTUS43 KDTX 230523
TAFMBS
TAF
KMBS 230523Z 2306/2406 VRB03KT P6SM SKC
     FM231600 22007KT P6SM SKC
     FM240100 23003KT P6SM SKC=



000
FTUS43 KDTX 230523
TAFDET
TAF
KDET 230523Z 2306/2406 VRB03KT P6SM SKC
     FM231600 19007KT P6SM SKC
     FM240100 20003KT P6SM SKC=



000
FTUS43 KDTX 230243 AAA
TAFDTW
TAF AMD
KDTW 230243Z 2303/2406 02005KT P6SM FEW250
     FM230600 VRB03KT P6SM SKC
     FM231600 20007KT P6SM SKC=



000
FTUS43 KDTX 221548 AAA
TAFMBS
TAF AMD
KMBS 221548Z 2216/2312 04013G20KT P6SM SKC
     FM222100 06011KT P6SM SKC
     FM230200 VRB03KT P6SM SKC=



    US Dept of Commerce
    National Oceanic and Atmospheric Administration
    National Weather Service
    1325 East West Highway
    Silver Spring, MD 20910
    Page Author: NWS Internet Services Team
Disclaimer
Information Quality
Credits
Glossary
Privacy Policy
Freedom of Information Act (FOIA)
About Us
Career Opportunities